createdAt,value
2022-09-06T00:01:23.441Z,3.92
2022-09-06T00:03:50.892Z,5.13
2022-09-06T00:06:20.178Z,4.20
2022-09-06T00:08:48.446Z,8.45
2022-09-06T00:11:17.912Z,3.60
2022-09-06T00:13:45.319Z,4.68
2022-09-06T00:16:19.681Z,4.22
2022-09-06T00:18:46.740Z,5.55
2022-09-06T00:21:19.017Z,4.93
2022-09-06T00:23:46.049Z,7.30
2022-09-06T00:26:13.552Z,6.43
2022-09-06T00:28:40.576Z,4.40
2022-09-06T00:31:17.558Z,8.82
2022-09-06T00:33:44.375Z,9.77
2022-09-06T00:36:12.524Z,9.10
2022-09-06T00:38:40.719Z,4.90
2022-09-06T00:41:10.970Z,8.40
2022-09-06T00:43:38.784Z,4.65
2022-09-06T00:46:08.133Z,9.45
2022-09-06T00:48:37.517Z,3.92
2022-09-06T00:51:08.300Z,5.95
2022-09-06T00:53:35.004Z,8.85
2022-09-06T00:56:02.071Z,7.15
2022-09-06T00:58:29.042Z,5.47
2022-09-06T01:00:56.056Z,9.48
2022-09-06T01:03:24.857Z,8.85
2022-09-06T01:06:21.955Z,12.45
2022-09-06T01:09:23.209Z,9.00
2022-09-06T01:12:21.496Z,7.20
2022-09-06T01:15:16.499Z,8.75
2022-09-06T01:18:17.725Z,19.33
2022-09-06T01:21:33.593Z,10.50
2022-09-06T01:24:52.165Z,10.95
2022-09-06T01:27:52.537Z,8.23
2022-09-06T01:30:20.558Z,8.43
2022-09-06T01:33:09.062Z,14.05
2022-09-06T01:35:40.913Z,8.23
2022-09-06T01:38:09.130Z,11.10
2022-09-06T01:40:36.530Z,11.45
2022-09-06T01:43:11.209Z,8.95
2022-09-06T01:46:14.707Z,13.02
2022-09-06T01:49:11.796Z,14.48
2022-09-06T01:51:55.460Z,15.95
2022-09-06T01:54:51.604Z,13.38
2022-09-06T01:58:03.251Z,15.38
2022-09-06T02:00:32.184Z,9.20
2022-09-06T02:03:16.313Z,10.20
2022-09-06T02:05:50.214Z,11.55
2022-09-06T02:08:41.712Z,11.35
2022-09-06T02:11:10.329Z,12.68
2022-09-06T02:14:00.165Z,11.43
2022-09-06T02:16:32.267Z,10.10
2022-09-06T02:19:20.089Z,17.63
2022-09-06T02:21:49.109Z,13.13
2022-09-06T02:24:30.770Z,11.35
2022-09-06T02:26:57.648Z,10.93
2022-09-06T02:29:25.937Z,14.00
2022-09-06T02:32:20.425Z,13.02
2022-09-06T02:34:48.654Z,12.30
2022-09-06T02:37:16.886Z,11.23
2022-09-06T02:39:43.981Z,11.82
2022-09-06T02:42:15.029Z,10.10
2022-09-06T02:44:41.721Z,14.18
2022-09-06T02:47:08.755Z,13.32
2022-09-06T02:49:35.417Z,18.52
2022-09-06T02:52:02.294Z,10.30
2022-09-06T02:54:28.981Z,12.70
2022-09-06T02:56:55.623Z,14.20
2022-09-06T02:59:22.269Z,12.20
2022-09-06T03:01:48.972Z,13.50
2022-09-06T03:04:15.593Z,13.68
2022-09-06T03:06:42.271Z,11.30
2022-09-06T03:09:10.352Z,10.25
2022-09-06T03:11:38.170Z,11.68
2022-09-06T03:14:04.972Z,11.50
2022-09-06T03:16:31.678Z,10.57
2022-09-06T03:18:58.342Z,9.13
2022-09-06T03:21:25.023Z,9.30
2022-09-06T03:23:52.381Z,10.57
2022-09-06T03:26:19.053Z,14.88
2022-09-06T03:28:45.790Z,10.82
2022-09-06T03:31:12.604Z,11.35
2022-09-06T03:33:39.480Z,11.40
2022-09-06T03:36:06.437Z,11.30
2022-09-06T03:38:33.212Z,12.18
2022-09-06T03:41:00.241Z,14.43
2022-09-06T03:43:27.800Z,13.48
2022-09-06T03:45:57.454Z,14.45
2022-09-06T03:48:27.921Z,15.27
2022-09-06T03:50:57.165Z,13.23
2022-09-06T03:53:25.821Z,12.90
2022-09-06T03:55:55.073Z,12.88
2022-09-06T03:58:24.557Z,15.27
2022-09-06T04:01:07.769Z,10.57
2022-09-06T04:03:35.373Z,15.57
2022-09-06T04:06:03.422Z,10.93
2022-09-06T04:08:30.397Z,14.60
2022-09-06T04:10:58.229Z,13.05
2022-09-06T04:13:28.184Z,17.13
2022-09-06T04:15:54.964Z,16.02
2022-09-06T04:18:22.783Z,13.25
2022-09-06T04:20:52.964Z,17.23
2022-09-06T04:23:20.667Z,14.65
2022-09-06T04:25:49.590Z,15.05
2022-09-06T04:28:18.264Z,17.60
2022-09-06T04:30:51.497Z,19.63
2022-09-06T04:33:18.267Z,18.05
2022-09-06T04:35:50.014Z,15.38
2022-09-06T04:38:16.973Z,20.17
2022-09-06T04:40:43.665Z,23.17
2022-09-06T04:43:10.316Z,16.77
2022-09-06T04:45:37.074Z,24.85
2022-09-06T04:48:04.049Z,20.58
2022-09-06T04:50:30.794Z,26.13
2022-09-06T04:53:05.651Z,22.15
2022-09-06T04:55:33.945Z,22.73
2022-09-06T04:58:01.268Z,27.75
2022-09-06T05:00:28.742Z,26.13
2022-09-06T05:02:55.787Z,21.15
2022-09-06T05:05:22.559Z,36.42
2022-09-06T05:07:54.473Z,28.50
2022-09-06T05:10:23.126Z,28.70
2022-09-06T05:12:52.214Z,31.42
2022-09-06T05:15:20.955Z,32.42
2022-09-06T05:17:47.972Z,31.90
2022-09-06T05:20:15.618Z,33.42
2022-09-06T05:22:42.318Z,36.42
2022-09-06T05:25:10.314Z,27.65
2022-09-06T05:27:37.060Z,30.45
2022-09-06T05:30:05.303Z,35.42
2022-09-06T05:32:31.936Z,29.05
2022-09-06T05:34:58.578Z,29.60
2022-09-06T05:37:25.433Z,24.25
2022-09-06T05:39:52.206Z,22.52
2022-09-06T05:42:19.485Z,18.90
2022-09-06T05:44:46.409Z,20.42
2022-09-06T05:47:13.525Z,15.95
2022-09-06T05:49:40.260Z,17.38
2022-09-06T05:52:06.903Z,22.02
2022-09-06T05:54:33.616Z,21.38
2022-09-06T05:57:00.278Z,23.00
2022-09-06T05:59:26.912Z,19.70
2022-09-06T06:01:54.450Z,15.60
2022-09-06T06:04:22.450Z,18.35
2022-09-06T06:06:49.453Z,14.50
2022-09-06T06:09:17.501Z,17.55
2022-09-06T06:11:44.386Z,21.42
2022-09-06T06:14:11.213Z,16.05
2022-09-06T06:16:38.280Z,16.65
2022-09-06T06:19:05.147Z,15.07
2022-09-06T06:21:34.062Z,12.10
2022-09-06T06:24:03.964Z,16.23
2022-09-06T06:26:34.114Z,12.38
2022-09-06T06:29:05.618Z,13.85
2022-09-06T06:31:33.903Z,14.65
2022-09-06T06:34:03.107Z,14.18
2022-09-06T06:36:34.806Z,14.95
2022-09-06T06:39:04.452Z,13.18
2022-09-06T06:41:32.810Z,13.23
2022-09-06T06:44:05.204Z,12.43
2022-09-06T06:46:36.525Z,12.90
2022-09-06T06:49:04.039Z,17.25
2022-09-06T06:51:33.022Z,12.15
2022-09-06T06:53:59.979Z,13.27
2022-09-06T06:56:28.026Z,14.43
2022-09-06T06:58:57.650Z,12.63
2022-09-06T07:01:26.717Z,9.95
2022-09-06T07:03:54.445Z,8.95
2022-09-06T07:09:09.238Z,19.60
2022-09-06T07:11:35.887Z,7.18
2022-09-06T07:14:02.544Z,10.30
2022-09-06T07:16:30.032Z,9.57
2022-09-06T07:18:56.760Z,10.18
2022-09-06T07:24:06.213Z,10.02
2022-09-06T07:26:34.639Z,9.35
2022-09-06T07:29:04.318Z,8.38
2022-09-06T07:34:20.335Z,8.68
2022-09-06T07:36:47.080Z,11.32
2022-09-06T07:39:14.132Z,7.38
2022-09-06T07:41:40.846Z,6.55
2022-09-06T07:44:07.483Z,4.55
2022-09-06T07:46:34.211Z,5.18
2022-09-06T07:49:03.694Z,5.32
2022-09-06T07:51:30.384Z,9.57
2022-09-06T07:54:13.294Z,5.53
2022-09-06T07:56:43.670Z,5.00
2022-09-06T07:59:10.378Z,5.47
2022-09-06T08:01:38.953Z,5.00
2022-09-06T08:04:14.218Z,4.45
2022-09-06T08:09:36.736Z,5.53
2022-09-06T08:12:07.254Z,6.22
2022-09-06T08:14:34.858Z,3.85
2022-09-06T08:17:04.485Z,5.78
2022-09-06T08:19:31.183Z,3.75
2022-09-06T08:21:57.850Z,6.55
2022-09-06T08:24:24.572Z,6.53
2022-09-06T08:26:51.725Z,4.18
2022-09-06T08:29:19.863Z,4.63
2022-09-06T08:31:47.017Z,4.47
2022-09-06T08:34:15.023Z,4.47
2022-09-06T08:36:42.452Z,4.90
2022-09-06T08:39:10.368Z,3.30
2022-09-06T08:42:16.124Z,4.95
2022-09-06T08:47:22.250Z,3.63
2022-09-06T08:50:00.853Z,3.53
2022-09-06T08:52:33.650Z,5.88
2022-09-06T08:55:06.053Z,2.78
2022-09-06T08:58:15.841Z,5.05
2022-09-06T09:00:50.788Z,4.78
2022-09-06T09:03:25.052Z,3.50
2022-09-06T09:05:53.884Z,2.05
2022-09-06T09:09:14.261Z,2.63
2022-09-06T09:11:45.592Z,4.07
2022-09-06T09:14:28.988Z,6.90
2022-09-06T09:17:31.407Z,3.33
2022-09-06T09:19:58.184Z,4.22
2022-09-06T09:22:25.715Z,5.15
2022-09-06T09:24:52.992Z,5.50
2022-09-06T09:27:26.974Z,5.72
2022-09-06T09:32:44.826Z,4.90
2022-09-06T09:35:36.780Z,4.10
2022-09-06T09:38:13.063Z,4.30
2022-09-06T09:40:50.160Z,2.53
2022-09-06T09:43:26.473Z,6.28
2022-09-06T09:46:13.967Z,2.58
2022-09-06T09:49:02.971Z,3.75
2022-09-06T09:51:32.216Z,2.13
2022-09-06T09:54:05.401Z,1.33
2022-09-06T09:56:53.428Z,5.47
2022-09-06T09:59:42.137Z,3.47
2022-09-06T10:02:41.345Z,2.17
2022-09-06T10:05:15.922Z,4.95
2022-09-06T10:07:45.870Z,5.88
2022-09-06T10:10:20.843Z,4.32
2022-09-06T10:12:47.857Z,7.28
2022-09-06T10:15:40.030Z,4.28
2022-09-06T10:18:17.658Z,1.88
2022-09-06T10:21:00.796Z,4.80
2022-09-06T10:24:31.193Z,1.75
2022-09-06T10:27:02.391Z,2.47
2022-09-06T10:29:58.323Z,3.00
2022-09-06T10:32:56.662Z,2.45
2022-09-06T10:35:37.231Z,2.28
2022-09-06T10:38:38.593Z,4.95
2022-09-06T10:41:33.214Z,5.60
2022-09-06T10:44:22.979Z,4.18
2022-09-06T10:46:59.922Z,2.08
2022-09-06T10:49:28.555Z,5.70
2022-09-06T10:52:01.545Z,1.58
2022-09-06T10:54:32.765Z,3.30
2022-09-06T11:00:14.342Z,2.45
2022-09-06T11:06:08.699Z,1.90
2022-09-06T11:09:06.505Z,7.28
2022-09-06T11:11:48.815Z,6.10
2022-09-06T11:14:15.818Z,2.00
2022-09-06T11:17:09.055Z,5.85
2022-09-06T11:20:13.774Z,2.95
2022-09-06T11:22:55.575Z,4.50
2022-09-06T11:26:02.880Z,4.03
2022-09-06T11:28:56.465Z,3.50
2022-09-06T11:34:30.355Z,1.90
2022-09-06T11:37:00.763Z,3.10
2022-09-06T11:43:01.091Z,1.83
2022-09-06T11:45:52.133Z,3.97
2022-09-06T11:48:25.296Z,3.95
2022-09-06T11:50:54.796Z,1.92
2022-09-06T11:53:25.378Z,6.30
2022-09-06T11:56:16.884Z,6.38
2022-09-06T11:58:52.802Z,7.72
2022-09-06T12:01:20.698Z,2.53
2022-09-06T12:04:09.877Z,2.95
2022-09-06T12:07:03.465Z,2.72
2022-09-06T12:09:43.876Z,2.50
2022-09-06T12:12:14.877Z,2.75
2022-09-06T12:14:47.033Z,3.00
2022-09-06T12:17:13.924Z,2.70
2022-09-06T12:19:49.721Z,3.40
2022-09-06T12:22:32.732Z,4.13
2022-09-06T12:25:36.312Z,7.15
2022-09-06T12:28:06.114Z,4.20
2022-09-06T12:30:37.319Z,5.32
2022-09-06T12:33:38.847Z,3.95
2022-09-06T12:36:30.274Z,2.97
2022-09-06T12:39:03.886Z,6.60
2022-09-06T12:41:41.756Z,3.95
2022-09-06T12:44:10.590Z,3.00
2022-09-06T12:46:39.826Z,1.95
2022-09-06T12:49:10.300Z,3.03
2022-09-06T12:51:40.430Z,1.70
2022-09-06T12:54:28.835Z,2.25
2022-09-06T12:57:21.819Z,4.00
2022-09-06T12:59:55.178Z,1.27
2022-09-06T13:02:41.043Z,2.35
2022-09-06T13:05:11.722Z,1.58
2022-09-06T13:07:46.798Z,2.38
2022-09-06T13:10:18.396Z,3.78
2022-09-06T13:12:48.989Z,2.78
2022-09-06T13:15:29.017Z,3.55
2022-09-06T13:18:31.282Z,5.95
2022-09-06T13:21:04.179Z,3.17
2022-09-06T13:23:47.492Z,1.30
2022-09-06T13:26:15.099Z,1.27
2022-09-06T13:28:41.755Z,2.10
2022-09-06T13:31:19.906Z,1.67
2022-09-06T13:33:59.154Z,3.50
2022-09-06T13:36:33.708Z,3.42
2022-09-06T13:39:03.550Z,1.67
2022-09-06T13:41:30.152Z,1.85
2022-09-06T13:44:07.943Z,3.67
2022-09-06T13:46:38.956Z,2.00
2022-09-06T13:49:06.096Z,2.05
2022-09-06T13:51:34.007Z,3.58
2022-09-06T13:54:14.097Z,3.20
2022-09-06T13:56:42.596Z,8.43
2022-09-06T13:59:10.440Z,3.90
2022-09-06T14:01:39.617Z,2.40
2022-09-06T14:04:07.225Z,2.72
2022-09-06T14:06:36.934Z,1.45
2022-09-06T14:09:08.401Z,1.13
2022-09-06T14:11:36.520Z,2.05
2022-09-06T14:14:03.846Z,1.45
2022-09-06T14:16:30.768Z,1.05
2022-09-06T14:18:57.942Z,2.80
2022-09-06T14:21:24.721Z,0.82
2022-09-06T14:23:52.789Z,4.35
2022-09-06T14:26:21.776Z,2.55
2022-09-06T14:28:49.220Z,1.98
2022-09-06T14:31:23.100Z,2.92
2022-09-06T14:33:49.901Z,2.97
2022-09-06T14:36:20.420Z,4.45
2022-09-06T14:38:48.413Z,2.15
2022-09-06T14:41:17.702Z,0.88
2022-09-06T14:43:52.686Z,2.33
2022-09-06T14:46:22.611Z,1.45
2022-09-06T14:48:57.268Z,4.25
2022-09-06T14:51:24.181Z,1.75
2022-09-06T14:53:55.929Z,1.50
2022-09-06T14:56:23.310Z,2.13
2022-09-06T14:58:50.413Z,1.50
2022-09-06T15:01:24.749Z,1.17
2022-09-06T15:06:23.671Z,2.30
2022-09-06T15:08:52.137Z,2.03
2022-09-06T15:11:35.843Z,1.58
2022-09-06T15:14:18.052Z,3.97
2022-09-06T15:16:46.647Z,0.70
2022-09-06T15:19:14.555Z,1.83
2022-09-06T15:21:41.983Z,2.05
2022-09-06T15:24:11.989Z,0.95
2022-09-06T15:26:40.870Z,3.13
2022-09-06T15:29:09.562Z,1.73
2022-09-06T15:31:38.008Z,3.00
2022-09-06T15:34:06.480Z,3.25
2022-09-06T15:36:33.398Z,2.20
2022-09-06T15:39:02.993Z,0.88
2022-09-06T15:41:32.824Z,3.63
2022-09-06T15:44:05.545Z,1.35
2022-09-06T15:46:35.230Z,1.13
2022-09-06T15:49:06.931Z,1.45
2022-09-06T15:51:35.594Z,1.67
2022-09-06T15:54:02.506Z,1.45
2022-09-06T15:56:29.240Z,2.17
2022-09-06T15:58:55.911Z,4.43
2022-09-06T16:01:25.663Z,3.05
2022-09-06T16:04:05.582Z,1.33
2022-09-06T16:06:41.186Z,0.90
2022-09-06T16:09:19.731Z,0.90
2022-09-06T16:11:46.412Z,2.78
2022-09-06T16:14:15.709Z,0.93
2022-09-06T16:16:43.730Z,2.33
2022-09-06T16:19:12.620Z,4.50
2022-09-06T16:21:42.115Z,2.97
2022-09-06T16:24:12.535Z,2.75
2022-09-06T16:26:46.072Z,2.35
2022-09-06T16:29:16.321Z,1.10
2022-09-06T16:31:43.404Z,2.30
2022-09-06T16:34:12.408Z,1.92
2022-09-06T16:36:39.909Z,2.58
2022-09-06T16:39:07.881Z,2.58
2022-09-06T16:41:46.449Z,4.43
2022-09-06T16:44:17.386Z,1.30
2022-09-06T16:46:49.722Z,4.90
2022-09-06T16:49:19.147Z,2.60
2022-09-06T16:51:47.629Z,2.40
2022-09-06T16:54:15.487Z,1.77
2022-09-06T16:56:43.292Z,1.40
2022-09-06T16:59:11.030Z,2.83
2022-09-06T17:01:41.777Z,4.45
2022-09-06T17:04:09.536Z,4.10
2022-09-06T17:06:43.965Z,2.58
2022-09-06T17:09:19.941Z,1.45
2022-09-06T17:11:49.641Z,2.28
2022-09-06T17:14:16.505Z,7.68
2022-09-06T17:17:01.632Z,4.78
2022-09-06T17:19:29.668Z,3.78
2022-09-06T17:21:56.403Z,2.65
2022-09-06T17:24:23.340Z,1.40
2022-09-06T17:26:50.094Z,2.58
2022-09-06T17:29:16.777Z,1.35
2022-09-06T17:31:43.489Z,3.28
2022-09-06T17:34:10.421Z,3.15
2022-09-06T17:36:37.522Z,3.42
2022-09-06T17:39:14.134Z,1.27
2022-09-06T17:41:46.026Z,1.58
2022-09-06T17:44:18.017Z,3.67
2022-09-06T17:47:02.870Z,1.35
2022-09-06T17:49:32.991Z,4.10
2022-09-06T17:51:59.656Z,2.35
2022-09-06T17:54:26.610Z,2.17
2022-09-06T17:56:53.473Z,3.70
2022-09-06T17:59:20.267Z,1.75
2022-09-06T18:01:47.080Z,1.48
2022-09-06T18:04:14.933Z,2.80
2022-09-06T18:06:43.435Z,2.28
2022-09-06T18:09:17.721Z,1.25
2022-09-06T18:11:48.278Z,2.43
2022-09-06T18:14:20.487Z,3.38
2022-09-06T18:16:49.203Z,2.45
2022-09-06T18:19:17.820Z,3.22
2022-09-06T18:21:45.218Z,1.80
2022-09-06T18:24:13.886Z,1.88
2022-09-06T18:26:41.671Z,2.75
2022-09-06T18:29:12.004Z,2.05
2022-09-06T18:31:39.692Z,4.30
2022-09-06T18:34:07.785Z,3.80
2022-09-06T18:36:35.218Z,3.25
2022-09-06T18:39:04.584Z,3.00
2022-09-06T18:41:52.033Z,2.53
2022-09-06T18:44:19.025Z,6.00
2022-09-06T18:46:46.091Z,3.60
2022-09-06T18:49:14.940Z,5.10
2022-09-06T18:51:42.885Z,5.70
2022-09-06T18:54:10.876Z,3.85
2022-09-06T18:56:37.857Z,8.23
2022-09-06T18:59:05.620Z,3.55
2022-09-06T19:01:34.752Z,3.72
2022-09-06T19:04:03.279Z,4.85
2022-09-06T19:06:32.305Z,5.60
2022-09-06T19:09:01.288Z,3.85
2022-09-06T19:11:28.679Z,4.45
2022-09-06T19:13:57.715Z,5.43
2022-09-06T19:16:26.944Z,3.45
2022-09-06T19:18:57.329Z,7.43
2022-09-06T19:21:25.546Z,3.17
2022-09-06T19:24:06.073Z,5.72
2022-09-06T19:26:37.650Z,8.57
2022-09-06T19:29:09.009Z,9.30
2022-09-06T19:31:37.838Z,4.80
2022-09-06T19:34:05.011Z,8.57
2022-09-06T19:36:32.593Z,9.23
2022-09-06T19:39:04.381Z,7.18
2022-09-06T19:41:40.113Z,2.47
2022-09-06T19:44:08.539Z,5.72
2022-09-06T19:46:37.123Z,5.90
2022-09-06T19:49:08.054Z,7.43
2022-09-06T19:51:36.640Z,4.53
2022-09-06T19:54:04.284Z,3.75
2022-09-06T19:56:34.226Z,3.22
2022-09-06T19:59:07.838Z,6.53
2022-09-06T20:01:37.336Z,5.10
2022-09-06T20:04:07.793Z,5.63
2022-09-06T20:06:35.497Z,6.70
2022-09-06T20:09:04.928Z,6.93
2022-09-06T20:11:34.442Z,4.82
2022-09-06T20:14:01.617Z,8.15
2022-09-06T20:16:30.226Z,3.10
2022-09-06T20:19:01.446Z,4.03
2022-09-06T20:21:29.523Z,7.13
2022-09-06T20:23:59.133Z,10.32
2022-09-06T20:26:30.264Z,3.88
2022-09-06T20:28:58.927Z,5.00
2022-09-06T20:31:28.772Z,4.88
2022-09-06T20:33:56.162Z,3.92
2022-09-06T20:36:23.193Z,3.85
2022-09-06T20:38:50.812Z,4.15
2022-09-06T20:41:23.647Z,6.28
2022-09-06T20:43:55.264Z,3.90
2022-09-06T20:46:28.195Z,7.38
2022-09-06T20:48:58.163Z,3.85
2022-09-06T20:51:25.246Z,4.35
2022-09-06T20:54:00.466Z,5.40
2022-09-06T20:56:34.350Z,5.78
2022-09-06T20:59:03.988Z,5.55
2022-09-06T21:01:34.991Z,7.15
2022-09-06T21:04:05.135Z,2.33
2022-09-06T21:06:34.427Z,3.85
2022-09-06T21:09:06.679Z,5.40
2022-09-06T21:11:34.379Z,4.85
2022-09-06T21:14:01.546Z,11.80
2022-09-06T21:16:30.146Z,8.52
2022-09-06T21:19:04.207Z,7.53
2022-09-06T21:21:34.055Z,3.60
2022-09-06T21:24:02.665Z,4.05
2022-09-06T21:26:29.416Z,4.55
2022-09-06T21:28:56.484Z,5.00
2022-09-06T21:31:30.138Z,5.97
2022-09-06T21:34:01.477Z,6.13
2022-09-06T21:36:31.822Z,4.18
2022-09-06T21:39:03.150Z,6.20
2022-09-06T21:41:31.220Z,2.75
2022-09-06T21:44:00.582Z,4.18
2022-09-06T21:46:33.126Z,3.00
2022-09-06T21:49:10.230Z,5.68
2022-09-06T21:51:37.452Z,3.60
2022-09-06T21:54:04.869Z,5.95
2022-09-06T21:56:37.200Z,10.32
2022-09-06T21:59:05.676Z,2.65
2022-09-06T22:01:35.421Z,2.10
2022-09-06T22:04:03.218Z,2.22
2022-09-06T22:06:32.284Z,1.27
2022-09-06T22:09:01.637Z,2.03
2022-09-06T22:11:32.145Z,2.75
2022-09-06T22:14:01.904Z,1.40
2022-09-06T22:16:30.118Z,3.65
2022-09-06T22:18:57.148Z,1.95
2022-09-06T22:21:24.696Z,5.90
2022-09-06T22:23:58.700Z,0.73
2022-09-06T22:26:29.038Z,2.92
2022-09-06T22:28:58.911Z,1.10
2022-09-06T22:31:28.690Z,1.35
2022-09-06T22:33:56.778Z,3.55
2022-09-06T22:36:25.403Z,1.10
2022-09-06T22:38:57.042Z,2.25
2022-09-06T22:41:30.808Z,2.40
2022-09-06T22:44:00.596Z,5.05
2022-09-06T22:46:28.140Z,2.78
2022-09-06T22:48:55.412Z,2.65
2022-09-06T22:51:22.164Z,1.85
2022-09-06T22:53:48.867Z,6.38
2022-09-06T22:56:15.905Z,3.05
2022-09-06T22:58:42.692Z,8.63
2022-09-06T23:01:13.286Z,2.72
2022-09-06T23:03:42.135Z,4.75
2022-09-06T23:06:09.627Z,2.88
2022-09-06T23:08:38.775Z,7.60
2022-09-06T23:11:11.630Z,3.60
2022-09-06T23:13:38.878Z,2.33
2022-09-06T23:16:07.850Z,10.15
2022-09-06T23:18:35.448Z,13.23
2022-09-06T23:21:14.437Z,12.07
2022-09-06T23:23:42.320Z,10.88
2022-09-06T23:26:16.269Z,0.00
2022-09-06T23:28:43.773Z,0.00
2022-09-06T23:31:13.731Z,0.00
2022-09-06T23:33:41.706Z,0.00
2022-09-06T23:36:12.005Z,0.00
2022-09-06T23:38:41.139Z,0.00
2022-09-06T23:41:09.816Z,0.00
2022-09-06T23:43:37.543Z,4.90
2022-09-06T23:46:05.035Z,0.00
2022-09-06T23:48:32.272Z,0.00
2022-09-06T23:50:59.158Z,0.00
2022-09-06T23:53:26.059Z,0.00
2022-09-06T23:55:53.387Z,0.00
2022-09-06T23:58:20.247Z,0.00
